Great Ocean — 3FDA5 — position and weather

sailwx.info

Track history (hours):
 
Tides and Currents Weather Stations Pressure Air Temp Water Temp Dewpoint Dewpoint Depression Visibility Wind Speed Wind Dir Waves Ship Positions

Great Ocean

Last reported at 2018-Feb-13 17:55 UTC. Time now 2018-Feb-19 05:43 UTC.
Position N 01°15' E 104°03'.

Length 180 m; draft 9.7 m.

Type: Cargo ship. MMSI: 371452000.

Date/timePositionNaut miles runAvg speedWind from/ knotsBaromVisibWave heightAir tempDewpointWater temp
2018-Feb-13 17:55N 01°15' E 104°03'511.0
2018-Feb-13 17:29N 01°14' E 103°58'511.0
2018-Feb-13 17:00N 01°12' E 103°53'5 9.9
2018-Feb-13 16:31N 01°10' E 103°49'5 9.5
2018-Feb-13 16:00N 01°07' E 103°45'510.1
2018-Feb-13 15:30N 01°04' E 103°42'510.3
2018-Feb-13 14:58N 01°04' E 103°36'511.3
2018-Feb-13 14:31N 01°07' E 103°32'612.4
2018-Feb-13 13:59N 01°10' E 103°26'612.5
2018-Feb-13 13:29N 01°14' E 103°21'  
Track history (hours):
 
Tides and Currents Weather Stations Pressure Air Temp Water Temp Dewpoint Dewpoint Depression Visibility Wind Speed Wind Dir Waves Ship Positions

Great Ocean

Last reported at 2018-Feb-13 17:55 UTC. Time now 2018-Feb-19 05:43 UTC.
Position N 01°15' E 104°03'.

Length 180 m; draft 9.7 m.

Type: Cargo ship. MMSI: 371452000.

Date/timePositionNaut miles runAvg speedWind from/ knotsBaromVisibWave heightAir tempDewpointWater temp
2018-Feb-13 17:55N 01°15' E 104°03'511.0
2018-Feb-13 17:29N 01°14' E 103°58'511.0
2018-Feb-13 17:00N 01°12' E 103°53'5 9.9
2018-Feb-13 16:31N 01°10' E 103°49'5 9.5
2018-Feb-13 16:00N 01°07' E 103°45'510.1
2018-Feb-13 15:30N 01°04' E 103°42'510.3
2018-Feb-13 14:58N 01°04' E 103°36'511.3
2018-Feb-13 14:31N 01°07' E 103°32'612.4
2018-Feb-13 13:59N 01°10' E 103°26'612.5
2018-Feb-13 13:29N 01°14' E 103°21'  

Dump ship's entire track history